Time;durP1;ratioP1;P1;durP2;ratioP2;P2;SDS_P1;SDS_P2;PMS_P1;PMS_P2;Temp;Humidity;BMP_temperature;BMP_pressure;BME280_temperature;BME280_humidity;BME280_pressure;Samples;Min_cycle;Max_cycle;Signal;HPM_P1;HPM_P2
2024/04/02 00:01:04;;;;;;;5.78;2.30;;;;;;;;;;5051324;28;20460;-78
2024/04/02 00:03:30;;;;;;;7.60;2.80;;;;;;;;;;5050834;28;20099;-78
2024/04/02 00:05:56;;;;;;;7.70;2.83;;;;;;;;;;5051037;28;20064;-78
2024/04/02 00:08:22;;;;;;;4.57;2.60;;;;;;;;;;5051026;28;20033;-79
2024/04/02 00:10:48;;;;;;;5.07;2.42;;;;;;;;;;5051230;28;20505;-78
2024/04/02 00:13:15;;;;;;;7.07;2.50;;;;;;;;;;5051089;28;20025;-78
2024/04/02 00:15:48;;;;;;;7.45;2.50;;;;;;;;;;5050887;28;20138;-78
2024/04/02 00:18:18;;;;;;;4.80;2.40;;;;;;;;;;5050809;28;20032;-78
2024/04/02 00:20:44;;;;;;;6.25;2.28;;;;;;;;;;5052353;28;20027;-78
2024/04/02 00:23:10;;;;;;;5.40;2.42;;;;;;;;;;5050858;28;20029;-78
2024/04/02 00:25:37;;;;;;;3.97;2.30;;;;;;;;;;5050982;28;20039;-79
2024/04/02 00:28:03;;;;;;;4.68;2.17;;;;;;;;;;5050975;28;20088;-77
2024/04/02 00:30:30;;;;;;;7.15;2.20;;;;;;;;;;5050456;28;20057;-78
2024/04/02 00:32:57;;;;;;;6.30;2.00;;;;;;;;;;5050911;28;20545;-79
2024/04/02 00:35:23;;;;;;;5.15;1.90;;;;;;;;;;5052025;28;20368;-79
2024/04/02 00:37:49;;;;;;;4.45;1.80;;;;;;;;;;5050946;28;20025;-78
2024/04/02 00:40:15;;;;;;;5.60;2.10;;;;;;;;;;5050534;28;20468;-78
2024/04/02 00:42:42;;;;;;;3.92;2.22;;;;;;;;;;5050857;28;20032;-78
2024/04/02 00:45:08;;;;;;;5.18;2.05;;;;;;;;;;5050813;28;20021;-77
2024/04/02 00:47:34;;;;;;;4.32;1.92;;;;;;;;;;5050665;28;20032;-77
2024/04/02 00:50:01;;;;;;;5.90;2.72;;;;;;;;;;5050517;28;20044;-76
2024/04/02 00:52:28;;;;;;;7.75;2.17;;;;;;;;;;5050494;28;20116;-77
2024/04/02 00:54:55;;;;;;;7.50;1.90;;;;;;;;;;5050670;28;20021;-77
2024/04/02 00:57:21;;;;;;;4.72;1.90;;;;;;;;;;5050483;28;20064;-78
2024/04/02 00:59:47;;;;;;;4.78;1.80;;;;;;;;;;5050695;28;20465;-78
2024/04/02 01:02:14;;;;;;;3.33;1.70;;;;;;;;;;5052934;28;20453;-79
2024/04/02 01:04:40;;;;;;;5.30;1.80;;;;;;;;;;5054688;28;20029;-78
2024/04/02 01:07:06;;;;;;;3.03;1.50;;;;;;;;;;5056016;28;20036;-79
2024/04/02 01:09:33;;;;;;;5.32;1.95;;;;;;;;;;5054371;28;20345;-79
2024/04/02 01:11:59;;;;;;;3.67;1.63;;;;;;;;;;5055892;28;20468;-78
2024/04/02 01:14:25;;;;;;;4.97;1.80;;;;;;;;;;5054463;28;20053;-78
2024/04/02 01:16:51;;;;;;;2.58;1.33;;;;;;;;;;5054589;28;20025;-77
2024/04/02 01:19:17;;;;;;;3.60;1.70;;;;;;;;;;5055651;28;20025;-76
2024/04/02 01:21:43;;;;;;;4.25;1.92;;;;;;;;;;5054486;28;20029;-78
2024/04/02 01:24:09;;;;;;;6.20;1.73;;;;;;;;;;5054382;28;20056;-79
2024/04/02 01:26:35;;;;;;;4.25;1.80;;;;;;;;;;5054129;28;20021;-78
2024/04/02 01:29:03;;;;;;;3.88;1.73;;;;;;;;;;5058669;28;20479;-77
2024/04/02 01:31:29;;;;;;;3.25;1.75;;;;;;;;;;5075003;28;20023;-77
2024/04/02 01:33:55;;;;;;;4.65;1.95;;;;;;;;;;5057498;28;20465;-77
2024/04/02 01:36:21;;;;;;;3.88;1.60;;;;;;;;;;5057208;28;20021;-77
2024/04/02 01:38:47;;;;;;;4.03;1.83;;;;;;;;;;5057518;28;20028;-77
2024/04/02 01:41:13;;;;;;;8.77;2.17;;;;;;;;;;5075323;28;20021;-77
2024/04/02 01:43:40;;;;;;;5.38;2.25;;;;;;;;;;5057157;28;20406;-77
2024/04/02 01:46:06;;;;;;;5.22;2.03;;;;;;;;;;5057193;28;20081;-78
2024/04/02 01:48:32;;;;;;;4.97;2.08;;;;;;;;;;5056814;28;20074;-78
2024/04/02 01:50:58;;;;;;;6.10;2.40;;;;;;;;;;5075122;28;20036;-78
2024/04/02 01:53:24;;;;;;;7.68;2.22;;;;;;;;;;5056860;28;20021;-77
2024/04/02 01:55:50;;;;;;;4.22;1.85;;;;;;;;;;5057033;28;20083;-78
2024/04/02 01:58:16;;;;;;;4.15;1.77;;;;;;;;;;5056838;28;20036;-78
2024/04/02 02:00:42;;;;;;;5.88;2.22;;;;;;;;;;5057034;28;20036;-79
2024/04/02 02:03:09;;;;;;;6.30;1.88;;;;;;;;;;5057040;28;20016;-78
2024/04/02 02:05:35;;;;;;;3.33;1.83;;;;;;;;;;5074414;28;20029;-78
2024/04/02 02:08:01;;;;;;;7.63;2.15;;;;;;;;;;5056826;28;20035;-79
2024/04/02 02:10:27;;;;;;;6.03;2.50;;;;;;;;;;5056596;28;20032;-78
2024/04/02 02:12:53;;;;;;;4.68;2.15;;;;;;;;;;5055934;28;20036;-79
2024/04/02 02:15:19;;;;;;;5.03;2.10;;;;;;;;;;5056235;28;20055;-79
2024/04/02 02:17:48;;;;;;;4.47;2.33;;;;;;;;;;5056713;28;20025;-78
2024/04/02 02:20:15;;;;;;;5.50;2.45;;;;;;;;;;5056511;28;20476;-78
2024/04/02 02:22:42;;;;;;;5.05;2.05;;;;;;;;;;5056483;28;20023;-80
2024/04/02 02:25:08;;;;;;;7.30;2.35;;;;;;;;;;5056501;28;20028;-79
2024/04/02 02:27:34;;;;;;;4.80;2.15;;;;;;;;;;5074133;28;20032;-79
2024/04/02 02:30:00;;;;;;;7.43;2.55;;;;;;;;;;5056095;28;20052;-79
2024/04/02 02:32:27;;;;;;;5.50;2.22;;;;;;;;;;5056137;28;20028;-79
2024/04/02 02:34:53;;;;;;;6.63;2.60;;;;;;;;;;5056225;28;20048;-78
2024/04/02 02:37:19;;;;;;;10.25;2.63;;;;;;;;;;5056702;28;20017;-78
2024/04/02 02:39:45;;;;;;;7.03;2.45;;;;;;;;;;5058836;28;20086;-79
2024/04/02 02:42:11;;;;;;;6.60;2.40;;;;;;;;;;5057787;28;20024;-78
2024/04/02 02:44:37;;;;;;;6.32;2.72;;;;;;;;;;5057914;28;20024;-78
2024/04/02 02:47:04;;;;;;;5.43;2.53;;;;;;;;;;5057563;28;20062;-77
2024/04/02 02:49:30;;;;;;;7.28;2.50;;;;;;;;;;5056977;28;20044;-78
2024/04/02 02:51:56;;;;;;;3.75;2.05;;;;;;;;;;5056637;28;20024;-79
2024/04/02 02:54:23;;;;;;;5.13;2.08;;;;;;;;;;5058387;28;20657;-79
2024/04/02 02:56:49;;;;;;;5.07;2.10;;;;;;;;;;5057921;28;20415;-79
2024/04/02 02:59:15;;;;;;;4.50;2.33;;;;;;;;;;5075171;28;20023;-78
2024/04/02 03:01:41;;;;;;;6.13;2.13;;;;;;;;;;5057593;28;20096;-78
2024/04/02 03:04:07;;;;;;;6.88;2.83;;;;;;;;;;5057761;28;20063;-78
2024/04/02 03:06:33;;;;;;;9.88;2.47;;;;;;;;;;5075501;28;20048;-78
2024/04/02 03:08:59;;;;;;;8.18;2.78;;;;;;;;;;5075427;28;20473;-77
2024/04/02 03:11:25;;;;;;;5.47;2.58;;;;;;;;;;5057384;28;20361;-78
2024/04/02 03:13:51;;;;;;;8.38;2.60;;;;;;;;;;5057586;28;20031;-77
2024/04/02 03:16:21;;;;;;;5.80;2.80;;;;;;;;;;5057916;28;20029;-77
2024/04/02 03:18:47;;;;;;;7.68;2.45;;;;;;;;;;5056141;28;20044;-77
2024/04/02 03:21:14;;;;;;;6.28;2.45;;;;;;;;;;5073898;28;20039;-78
2024/04/02 03:23:40;;;;;;;6.60;2.38;;;;;;;;;;5055462;28;20024;-78
2024/04/02 03:26:06;;;;;;;6.55;3.03;;;;;;;;;;5055849;28;20059;-78
2024/04/02 03:28:32;;;;;;;7.03;2.97;;;;;;;;;;5055166;28;20679;-77
2024/04/02 03:30:59;;;;;;;7.53;2.92;;;;;;;;;;5055344;28;20148;-77
2024/04/02 03:33:35;;;;;;;7.40;2.83;;;;;;;;;;5055492;28;20031;-78
2024/04/02 03:36:05;;;;;;;7.63;2.72;;;;;;;;;;5056020;28;20107;-79
2024/04/02 03:38:31;;;;;;;;;;;;;;;;;;5056234;28;20024;-78
2024/04/02 03:41:06;;;;;;;6.30;2.40;;;;;;;;;;5055356;28;19911;-78
2024/04/02 03:43:32;;;;;;;6.53;2.63;;;;;;;;;;5054856;28;20035;-77
2024/04/02 03:46:02;;;;;;;8.13;3.00;;;;;;;;;;5055171;28;20020;-77
2024/04/02 03:48:28;;;;;;;6.18;2.47;;;;;;;;;;5054557;28;20052;-76
2024/04/02 03:50:54;;;;;;;8.88;2.97;;;;;;;;;;5054910;28;20075;-77
2024/04/02 03:53:20;;;;;;;6.50;2.72;;;;;;;;;;5054969;28;20052;-77
2024/04/02 03:55:46;;;;;;;7.30;2.95;;;;;;;;;;5054564;28;20032;-77
2024/04/02 03:58:12;;;;;;;7.55;2.60;;;;;;;;;;5072778;28;20025;-76
2024/04/02 04:00:44;;;;;;;6.60;2.63;;;;;;;;;;5072176;28;20071;-77
2024/04/02 04:03:10;;;;;;;6.28;2.58;;;;;;;;;;5054655;28;20028;-79
2024/04/02 04:05:37;;;;;;;5.60;2.63;;;;;;;;;;5054499;28;20024;-78
2024/04/02 04:08:03;;;;;;;6.97;3.08;;;;;;;;;;5072578;28;20032;-79
2024/04/02 04:10:29;;;;;;;9.52;2.90;;;;;;;;;;5054266;28;20039;-78
2024/04/02 04:12:55;;;;;;;5.95;2.47;;;;;;;;;;5056553;28;20025;-77
2024/04/02 04:15:21;;;;;;;6.90;3.15;;;;;;;;;;5056371;28;20024;-79
2024/04/02 04:17:47;;;;;;;11.32;3.33;;;;;;;;;;5056358;28;20021;-79
2024/04/02 04:20:13;;;;;;;13.95;3.70;;;;;;;;;;5056420;28;20062;-79
2024/04/02 04:22:39;;;;;;;7.22;2.58;;;;;;;;;;5055998;28;20047;-78
2024/04/02 04:25:05;;;;;;;11.27;3.47;;;;;;;;;;5055566;28;20025;-78
2024/04/02 04:27:33;;;;;;;8.18;2.92;;;;;;;;;;5074339;28;20043;-79
2024/04/02 04:30:00;;;;;;;7.43;2.47;;;;;;;;;;5074268;28;20048;-79
2024/04/02 04:32:26;;;;;;;9.13;2.83;;;;;;;;;;5055568;28;20403;-78
2024/04/02 04:34:52;;;;;;;6.65;2.35;;;;;;;;;;5055326;28;20020;-77
2024/04/02 04:37:18;;;;;;;10.38;2.80;;;;;;;;;;5054779;28;20089;-78
2024/04/02 04:39:44;;;;;;;7.70;2.65;;;;;;;;;;5054671;28;20063;-78
2024/04/02 04:42:10;;;;;;;10.35;2.80;;;;;;;;;;5072268;28;20444;-78
2024/04/02 04:44:36;;;;;;;10.88;3.00;;;;;;;;;;5073717;28;20024;-78
2024/04/02 04:47:02;;;;;;;6.93;2.28;;;;;;;;;;5058309;28;20025;-78
2024/04/02 04:49:28;;;;;;;7.13;2.67;;;;;;;;;;5054701;28;20480;-77
2024/04/02 04:51:55;;;;;;;6.85;2.70;;;;;;;;;;5054370;28;20033;-77
2024/04/02 04:54:21;;;;;;;7.10;2.75;;;;;;;;;;5073732;28;20472;-78
2024/04/02 04:56:47;;;;;;;9.00;2.33;;;;;;;;;;5072707;28;20510;-77
2024/04/02 04:59:13;;;;;;;8.68;2.67;;;;;;;;;;5055496;28;20598;-77
2024/04/02 05:01:39;;;;;;;5.95;2.35;;;;;;;;;;5054811;28;20024;-78
2024/04/02 05:04:05;;;;;;;8.70;2.50;;;;;;;;;;5054481;28;20369;-77
2024/04/02 05:06:34;;;;;;;5.75;2.42;;;;;;;;;;5071893;28;20499;-78
2024/04/02 05:09:00;;;;;;;9.43;2.83;;;;;;;;;;5054419;28;20043;-78
2024/04/02 05:11:26;;;;;;;8.82;2.83;;;;;;;;;;5053848;28;20754;-77
2024/04/02 05:13:52;;;;;;;9.40;2.97;;;;;;;;;;5071907;28;20103;-77
2024/04/02 05:16:18;;;;;;;7.10;2.83;;;;;;;;;;5053905;28;20115;-78
2024/04/02 05:18:44;;;;;;;7.68;2.97;;;;;;;;;;5053562;28;20016;-78
2024/04/02 05:21:11;;;;;;;7.22;3.10;;;;;;;;;;5053876;28;20028;-77
2024/04/02 05:23:37;;;;;;;11.05;3.17;;;;;;;;;;5053569;28;20028;-76
2024/04/02 05:26:03;;;;;;;8.43;2.95;;;;;;;;;;5054031;28;20060;-78
2024/04/02 05:28:29;;;;;;;8.68;2.55;;;;;;;;;;5053470;28;20038;-79
2024/04/02 05:30:55;;;;;;;10.60;2.80;;;;;;;;;;5053446;28;20500;-78
2024/04/02 05:33:21;;;;;;;9.30;2.85;;;;;;;;;;5053727;28;20032;-78
2024/04/02 05:35:47;;;;;;;7.00;2.15;;;;;;;;;;5071885;28;20037;-78
2024/04/02 05:38:13;;;;;;;9.35;2.33;;;;;;;;;;5053807;28;20025;-79
2024/04/02 05:40:39;;;;;;;6.53;2.50;;;;;;;;;;5053403;28;20028;-78
2024/04/02 05:43:05;;;;;;;7.18;2.70;;;;;;;;;;5071973;28;20095;-79
2024/04/02 05:45:31;;;;;;;6.03;2.67;;;;;;;;;;5053625;28;20055;-79
2024/04/02 05:47:57;;;;;;;8.98;3.10;;;;;;;;;;5054162;28;20024;-80
2024/04/02 05:50:23;;;;;;;6.65;2.80;;;;;;;;;;5057439;28;20078;-79
2024/04/02 05:52:49;;;;;;;4.95;2.20;;;;;;;;;;5057420;28;20479;-79
2024/04/02 05:55:17;;;;;;;7.05;2.03;;;;;;;;;;5057352;28;20075;-78
2024/04/02 05:57:44;;;;;;;5.18;2.20;;;;;;;;;;5056857;28;20067;-77
2024/04/02 06:00:10;;;;;;;9.52;3.17;;;;;;;;;;5056954;28;20480;-78
2024/04/02 06:02:37;;;;;;;6.88;2.72;;;;;;;;;;5056704;28;20048;-74
2024/04/02 06:05:04;;;;;;;11.07;2.85;;;;;;;;;;5074545;28;20468;-74
2024/04/02 06:07:30;;;;;;;6.90;2.72;;;;;;;;;;5056867;28;20073;-74
2024/04/02 06:09:56;;;;;;;9.75;2.60;;;;;;;;;;5074403;28;20047;-74
2024/04/02 06:12:22;;;;;;;6.57;3.40;;;;;;;;;;5074713;28;20476;-75
2024/04/02 06:14:48;;;;;;;6.88;2.80;;;;;;;;;;5074522;28;20027;-74
2024/04/02 06:17:14;;;;;;;8.27;3.50;;;;;;;;;;5056702;28;20115;-74
2024/04/02 06:19:40;;;;;;;10.10;2.80;;;;;;;;;;5074273;28;20025;-75
2024/04/02 06:22:06;;;;;;;9.88;3.70;;;;;;;;;;5074525;28;20032;-75
2024/04/02 06:24:32;;;;;;;10.38;3.75;;;;;;;;;;5074287;28;20047;-75
2024/04/02 06:26:58;;;;;;;8.95;3.53;;;;;;;;;;5056489;28;20028;-75
2024/04/02 06:29:24;;;;;;;4.72;2.50;;;;;;;;;;5056066;28;20044;-74
2024/04/02 06:31:51;;;;;;;8.65;2.97;;;;;;;;;;5056208;28;20107;-74
2024/04/02 06:34:17;;;;;;;14.82;3.30;;;;;;;;;;5056277;28;20377;-75
2024/04/02 06:36:43;;;;;;;9.30;2.85;;;;;;;;;;5056101;28;20043;-74
2024/04/02 06:39:09;;;;;;;9.88;3.03;;;;;;;;;;5074150;28;20476;-74
2024/04/02 06:41:35;;;;;;;6.55;3.05;;;;;;;;;;5074140;28;20027;-74
2024/04/02 06:44:01;;;;;;;9.50;3.05;;;;;;;;;;5056095;28;20024;-74
2024/04/02 06:46:28;;;;;;;9.70;3.20;;;;;;;;;;5074032;28;20436;-74
2024/04/02 06:48:56;;;;;;;9.13;2.80;;;;;;;;;;5055549;28;20032;-74
2024/04/02 06:51:23;;;;;;;10.20;3.20;;;;;;;;;;5055960;28;20020;-74
2024/04/02 06:53:49;;;;;;;9.68;2.72;;;;;;;;;;5055669;28;20040;-74
2024/04/02 06:56:15;;;;;;;12.02;3.22;;;;;;;;;;5055860;28;20029;-75
2024/04/02 06:58:41;;;;;;;8.98;3.05;;;;;;;;;;5055505;28;20380;-75
2024/04/02 07:01:07;;;;;;;10.00;2.38;;;;;;;;;;5073428;28;20025;-75
2024/04/02 07:03:33;;;;;;;12.57;3.90;;;;;;;;;;5055457;28;20024;-74
2024/04/02 07:05:59;;;;;;;10.73;3.20;;;;;;;;;;5055725;28;20017;-75
2024/04/02 07:08:25;;;;;;;11.27;3.47;;;;;;;;;;5073687;28;20096;-75
2024/04/02 07:10:59;;;;;;;13.23;3.75;;;;;;;;;;5055361;28;20033;-75
2024/04/02 07:13:28;;;;;;;10.55;2.80;;;;;;;;;;5073562;28;20025;-76
2024/04/02 07:15:54;;;;;;;11.73;3.72;;;;;;;;;;5055395;28;20031;-78
2024/04/02 07:18:20;;;;;;;9.50;4.30;;;;;;;;;;5055357;28;20039;-78
2024/04/02 07:21:07;;;;;;;10.23;4.35;;;;;;;;;;5072782;28;20428;-79
2024/04/02 07:23:35;;;;;;;12.75;5.03;;;;;;;;;;5055435;28;20025;-79
2024/04/02 07:26:01;;;;;;;13.68;3.80;;;;;;;;;;5055552;28;20388;-81
2024/04/02 07:28:27;;;;;;;11.32;4.07;;;;;;;;;;5055364;28;20031;-82
2024/04/02 07:30:54;;;;;;;13.38;4.28;;;;;;;;;;5054964;28;20400;-82
2024/04/02 07:33:20;;;;;;;13.40;5.18;;;;;;;;;;5055288;28;20020;-77
2024/04/02 07:35:46;;;;;;;12.43;5.10;;;;;;;;;;5054751;28;20028;-77
2024/04/02 07:38:13;;;;;;;14.35;4.38;;;;;;;;;;5073195;28;20021;-79
2024/04/02 07:40:40;;;;;;;12.45;3.90;;;;;;;;;;5054800;28;20108;-78
2024/04/02 07:43:06;;;;;;;15.68;4.80;;;;;;;;;;5054888;28;20074;-78
2024/04/02 07:45:35;;;;;;;12.73;5.20;;;;;;;;;;5054914;28;20492;-79
2024/04/02 07:48:02;;;;;;;13.23;4.75;;;;;;;;;;5054827;28;20025;-80
2024/04/02 07:50:29;;;;;;;12.45;4.75;;;;;;;;;;5054628;28;20060;-78
2024/04/02 07:52:55;;;;;;;13.38;5.13;;;;;;;;;;5054190;28;20040;-78
2024/04/02 07:55:21;;;;;;;13.68;5.03;;;;;;;;;;5054615;28;20067;-78
2024/04/02 07:57:47;;;;;;;15.18;4.85;;;;;;;;;;5072108;28;20746;-77
2024/04/02 08:00:14;;;;;;;8.98;3.90;;;;;;;;;;5054382;28;20078;-78
2024/04/02 08:02:40;;;;;;;12.20;4.78;;;;;;;;;;5072026;28;20020;-77
2024/04/02 08:05:06;;;;;;;13.73;4.00;;;;;;;;;;5054538;28;20055;-79
2024/04/02 08:07:32;;;;;;;17.00;5.00;;;;;;;;;;5072771;28;20086;-78
2024/04/02 08:10:00;;;;;;;14.35;3.67;;;;;;;;;;5054251;28;20064;-78
2024/04/02 08:12:26;;;;;;;13.95;3.67;;;;;;;;;;5071402;28;20040;-77
2024/04/02 08:14:52;;;;;;;15.70;3.97;;;;;;;;;;5053790;28;20029;-78
2024/04/02 08:17:18;;;;;;;12.68;3.95;;;;;;;;;;5054060;28;20021;-79
2024/04/02 08:19:45;;;;;;;13.75;4.88;;;;;;;;;;5053766;28;20388;-78
2024/04/02 08:22:13;;;;;;;14.82;3.85;;;;;;;;;;5054035;28;20024;-79
2024/04/02 08:24:39;;;;;;;14.35;4.35;;;;;;;;;;5071915;28;20070;-80
2024/04/02 08:27:05;;;;;;;13.43;3.92;;;;;;;;;;5072103;28;20037;-79
2024/04/02 08:29:31;;;;;;;12.38;4.22;;;;;;;;;;5053632;28;20048;-80
2024/04/02 08:31:58;;;;;;;13.98;3.85;;;;;;;;;;5054107;28;20044;-79
2024/04/02 08:34:24;;;;;;;11.82;3.75;;;;;;;;;;5071863;28;20032;-79
2024/04/02 08:36:50;;;;;;;12.75;2.88;;;;;;;;;;5053771;28;20078;-78
2024/04/02 08:39:17;;;;;;;14.32;3.63;;;;;;;;;;5053808;28;20028;-79
2024/04/02 08:41:43;;;;;;;16.13;4.22;;;;;;;;;;5053555;28;20029;-78
2024/04/02 08:44:10;;;;;;;17.08;4.13;;;;;;;;;;5054027;28;20020;-79
2024/04/02 08:46:36;;;;;;;15.98;3.85;;;;;;;;;;5053890;28;20020;-78
2024/04/02 08:49:04;;;;;;;12.57;3.17;;;;;;;;;;5053824;28;20119;-79
2024/04/02 08:51:30;;;;;;;11.63;3.15;;;;;;;;;;5053864;28;20021;-79
2024/04/02 08:53:59;;;;;;;18.63;3.47;;;;;;;;;;5071475;28;20479;-78
2024/04/02 08:56:25;;;;;;;15.43;3.60;;;;;;;;;;5071950;28;20029;-79
2024/04/02 08:58:51;;;;;;;13.25;3.03;;;;;;;;;;5053772;28;20031;-79
2024/04/02 09:01:19;;;;;;;12.00;2.88;;;;;;;;;;5071737;28;20021;-77
2024/04/02 09:03:46;;;;;;;19.13;4.03;;;;;;;;;;5053680;28;20112;-77
2024/04/02 09:06:12;;;;;;;12.10;3.55;;;;;;;;;;5071741;28;20107;-79
2024/04/02 09:08:47;;;;;;;21.60;3.90;;;;;;;;;;5053733;28;20024;-78
2024/04/02 09:11:14;;;;;;;15.82;3.05;;;;;;;;;;5053523;28;20024;-77
2024/04/02 09:13:40;;;;;;;14.40;3.50;;;;;;;;;;5053771;28;20144;-78
2024/04/02 09:16:10;;;;;;;13.45;2.60;;;;;;;;;;5053194;28;20039;-78
2024/04/02 09:18:37;;;;;;;;;;;;;;;;;;5054630;28;20036;-79
2024/04/02 09:21:03;;;;;;;16.52;2.85;;;;;;;;;;5053626;28;19912;-77
2024/04/02 09:23:30;;;;;;;8.48;2.50;;;;;;;;;;5074203;28;20035;-76
2024/04/02 09:25:57;;;;;;;14.80;3.88;;;;;;;;;;5057301;28;20081;-76
2024/04/02 09:28:23;;;;;;;16.83;2.92;;;;;;;;;;5075229;28;20416;-76
2024/04/02 09:30:49;;;;;;;23.80;3.72;;;;;;;;;;5056428;28;20048;-75
2024/04/02 09:33:19;;;;;;;14.75;3.72;;;;;;;;;;5074385;28;20800;-76
2024/04/02 09:35:54;;;;;;;12.38;3.05;;;;;;;;;;5056809;28;20114;-75
2024/04/02 09:38:21;;;;;;;11.32;2.38;;;;;;;;;;5056263;28;20091;-76
2024/04/02 09:40:48;;;;;;;12.93;3.78;;;;;;;;;;5056408;28;20021;-75
2024/04/02 09:43:15;;;;;;;17.63;3.30;;;;;;;;;;5074172;28;20096;-76
2024/04/02 09:45:43;;;;;;;16.98;3.25;;;;;;;;;;5056383;28;20047;-75
2024/04/02 09:48:10;;;;;;;17.20;3.67;;;;;;;;;;5055993;28;20036;-76
2024/04/02 09:50:37;;;;;;;10.05;2.55;;;;;;;;;;5074191;28;20024;-81
2024/04/02 09:53:04;;;;;;;10.65;3.08;;;;;;;;;;5073940;28;20020;-80
2024/04/02 09:55:30;;;;;;;14.30;3.17;;;;;;;;;;5056321;28;20598;-80
2024/04/02 09:57:57;;;;;;;19.13;4.80;;;;;;;;;;5074252;28;20032;-81
2024/04/02 10:00:23;;;;;;;12.48;2.40;;;;;;;;;;5056316;28;20044;-80
2024/04/02 10:02:50;;;;;;;10.38;2.17;;;;;;;;;;5074667;28;20028;-80
2024/04/02 10:05:22;;;;;;;8.95;2.42;;;;;;;;;;5073795;28;20032;-80
2024/04/02 10:07:51;;;;;;;10.55;2.83;;;;;;;;;;5056015;28;20024;-79
2024/04/02 10:10:17;;;;;;;16.90;2.93;;;;;;;;;;5073749;28;20059;-80
2024/04/02 10:12:50;;;;;;;23.20;3.00;;;;;;;;;;5056077;28;20104;-79
2024/04/02 10:15:17;;;;;;;9.13;2.55;;;;;;;;;;5073727;28;20027;-77
2024/04/02 10:17:46;;;;;;;18.67;3.80;;;;;;;;;;5073848;28;20036;-77
2024/04/02 10:20:16;;;;;;;12.98;2.30;;;;;;;;;;5073451;28;20052;-77
2024/04/02 10:22:43;;;;;;;10.23;1.83;;;;;;;;;;5073544;28;20031;-76
2024/04/02 10:25:10;;;;;;;9.38;1.77;;;;;;;;;;5059823;28;20016;-76
2024/04/02 10:27:36;;;;;;;14.15;2.88;;;;;;;;;;5066796;28;20044;-76
2024/04/02 10:30:03;;;;;;;7.32;1.70;;;;;;;;;;5089233;28;20055;-77
2024/04/02 10:32:34;;;;;;;10.18;2.00;;;;;;;;;;5093586;28;20058;-76
2024/04/02 10:35:00;;;;;;;9.45;1.95;;;;;;;;;;5092706;28;20115;-78
2024/04/02 10:37:26;;;;;;;15.60;2.67;;;;;;;;;;5075491;28;20482;-77
2024/04/02 10:39:52;;;;;;;10.35;2.30;;;;;;;;;;5075446;28;20024;-78
2024/04/02 10:42:18;;;;;;;11.00;2.30;;;;;;;;;;5093629;28;20069;-77
2024/04/02 10:44:44;;;;;;;11.40;2.60;;;;;;;;;;5075470;28;20035;-77
2024/04/02 10:47:17;;;;;;;11.88;2.10;;;;;;;;;;5093264;28;20031;-78
2024/04/02 10:49:48;;;;;;;12.05;2.60;;;;;;;;;;5074934;28;20036;-77
2024/04/02 10:52:14;;;;;;;10.77;2.90;;;;;;;;;;5088804;28;20028;-78
2024/04/02 10:54:41;;;;;;;12.88;2.63;;;;;;;;;;5093390;28;20024;-77
2024/04/02 10:57:10;;;;;;;9.52;2.10;;;;;;;;;;5075092;28;20032;-77
2024/04/02 10:59:36;;;;;;;12.15;3.17;;;;;;;;;;5066549;28;20082;-77
2024/04/02 11:02:14;;;;;;;12.23;3.00;;;;;;;;;;5072639;28;20066;-78
2024/04/02 11:04:40;;;;;;;8.77;2.63;;;;;;;;;;5073533;28;20017;-77
2024/04/02 11:07:10;;;;;;;9.85;2.67;;;;;;;;;;5054667;28;20021;-78
2024/04/02 11:09:36;;;;;;;9.25;2.58;;;;;;;;;;5074046;28;20529;-78
2024/04/02 11:15:09;;;;;;;7.95;1.95;;;;;;;;;;5072915;28;20055;-78
2024/04/02 11:17:35;;;;;;;13.73;2.70;;;;;;;;;;5068593;28;20471;-78
2024/04/02 11:20:09;;;;;;;8.45;2.83;;;;;;;;;;5056854;28;20475;-78
2024/04/02 11:25:22;;;;;;;9.50;2.80;;;;;;;;;;5083677;28;20071;-78
2024/04/02 11:27:49;;;;;;;7.15;2.55;;;;;;;;;;5066205;28;20035;-79
2024/04/02 11:30:16;;;;;;;6.43;1.92;;;;;;;;;;5092706;28;20077;-77
2024/04/02 11:32:42;;;;;;;9.25;3.00;;;;;;;;;;5074417;28;20024;-78
2024/04/02 11:35:13;;;;;;;12.45;2.95;;;;;;;;;;5092539;28;20077;-79
2024/04/02 11:37:39;;;;;;;9.38;2.17;;;;;;;;;;5074114;28;20035;-77
2024/04/02 11:40:07;;;;;;;8.90;2.67;;;;;;;;;;5073930;28;20065;-78
2024/04/02 11:42:34;;;;;;;8.10;2.60;;;;;;;;;;5073863;28;20067;-78
2024/04/02 11:48:04;;;;;;;6.60;2.30;;;;;;;;;;5071779;28;20043;-78
2024/04/02 11:50:30;;;;;;;8.48;2.38;;;;;;;;;;5066409;28;20131;-78
2024/04/02 11:52:56;;;;;;;10.23;2.53;;;;;;;;;;5091872;28;20020;-78
2024/04/02 11:55:22;;;;;;;6.30;2.05;;;;;;;;;;5073748;28;20024;-78
2024/04/02 12:00:33;;;;;;;10.75;2.83;;;;;;;;;;5092278;28;20074;-79
2024/04/02 12:03:00;;;;;;;7.70;2.58;;;;;;;;;;5073639;28;20120;-78
2024/04/02 12:05:27;;;;;;;7.72;2.90;;;;;;;;;;5073538;28;20082;-78
2024/04/02 12:07:53;;;;;;;7.03;2.65;;;;;;;;;;5073190;28;20051;-78
2024/04/02 12:10:19;;;;;;;10.95;3.35;;;;;;;;;;5091634;28;20024;-79
2024/04/02 12:12:45;;;;;;;9.07;3.08;;;;;;;;;;5091458;28;20024;-78
2024/04/02 12:15:11;;;;;;;10.10;3.35;;;;;;;;;;5073687;28;20016;-79
2024/04/02 12:17:40;;;;;;;9.57;3.20;;;;;;;;;;5088706;28;20016;-78
2024/04/02 12:20:07;;;;;;;8.68;3.55;;;;;;;;;;5053030;28;20369;-79
2024/04/02 12:22:34;;;;;;;6.15;1.98;;;;;;;;;;5052950;28;20032;-78
2024/04/02 12:25:00;;;;;;;11.52;2.22;;;;;;;;;;5052942;28;20369;-77
2024/04/02 12:27:26;;;;;;;12.15;2.38;;;;;;;;;;5053301;28;20039;-77
2024/04/02 12:29:59;;;;;;;5.40;1.85;;;;;;;;;;5052474;28;20041;-78
2024/04/02 12:32:27;;;;;;;10.57;2.67;;;;;;;;;;5053623;28;20023;-78
2024/04/02 12:34:55;;;;;;;9.05;2.50;;;;;;;;;;5053093;28;20508;-79
2024/04/02 12:37:21;;;;;;;9.10;2.42;;;;;;;;;;5063626;28;20024;-78
2024/04/02 12:39:47;;;;;;;7.07;1.85;;;;;;;;;;5060239;28;20496;-78
2024/04/02 12:42:13;;;;;;;7.45;2.83;;;;;;;;;;5052969;28;20032;-77
2024/04/02 12:44:40;;;;;;;9.75;2.35;;;;;;;;;;5070900;28;20016;-78
2024/04/02 12:47:08;;;;;;;10.27;2.95;;;;;;;;;;5079486;28;20041;-78
2024/04/02 12:49:35;;;;;;;7.90;2.65;;;;;;;;;;5054043;28;20111;-77
2024/04/02 12:52:01;;;;;;;10.25;2.80;;;;;;;;;;5054482;28;20074;-77
2024/04/02 12:54:27;;;;;;;12.77;3.13;;;;;;;;;;5071637;28;20114;-77
2024/04/02 12:56:53;;;;;;;8.23;2.17;;;;;;;;;;5053642;28;20107;-76
2024/04/02 12:59:20;;;;;;;8.30;2.40;;;;;;;;;;5057446;28;20130;-77
2024/04/02 13:01:47;;;;;;;5.35;2.03;;;;;;;;;;5058121;28;20021;-77
2024/04/02 13:04:13;;;;;;;8.07;2.67;;;;;;;;;;5057637;28;20043;-78
2024/04/02 13:06:39;;;;;;;10.93;2.72;;;;;;;;;;5075380;28;20448;-78
2024/04/02 13:09:05;;;;;;;8.95;2.53;;;;;;;;;;5057766;28;20361;-77
2024/04/02 13:11:34;;;;;;;7.95;1.92;;;;;;;;;;5075713;28;20086;-78
2024/04/02 13:14:00;;;;;;;8.15;2.15;;;;;;;;;;5057147;28;20021;-77
2024/04/02 13:16:33;;;;;;;7.10;2.38;;;;;;;;;;5058114;28;20417;-77
2024/04/02 13:19:04;;;;;;;12.68;3.15;;;;;;;;;;5056734;28;20108;-78
2024/04/02 13:21:31;;;;;;;12.68;3.05;;;;;;;;;;5056520;28;20021;-78
2024/04/02 13:23:58;;;;;;;9.23;2.60;;;;;;;;;;5056602;28;20016;-77
2024/04/02 13:26:25;;;;;;;9.43;3.42;;;;;;;;;;5056709;28;20500;-78
2024/04/02 13:28:51;;;;;;;10.40;2.72;;;;;;;;;;5073629;28;20085;-79
2024/04/02 13:31:18;;;;;;;11.07;3.05;;;;;;;;;;5078214;28;20024;-78
2024/04/02 13:33:44;;;;;;;7.57;3.10;;;;;;;;;;5067677;28;20036;-79
2024/04/02 13:36:12;;;;;;;7.45;2.40;;;;;;;;;;5057003;28;20052;-79
2024/04/02 13:38:40;;;;;;;13.25;3.47;;;;;;;;;;5056528;28;20029;-79
2024/04/02 13:41:09;;;;;;;7.90;2.20;;;;;;;;;;5056005;28;20085;-79
2024/04/02 13:43:35;;;;;;;10.23;2.70;;;;;;;;;;5056559;28;20120;-79
2024/04/02 13:46:02;;;;;;;10.40;2.75;;;;;;;;;;5074559;28;20025;-78
2024/04/02 13:48:28;;;;;;;9.80;3.50;;;;;;;;;;5056401;28;20052;-80
2024/04/02 13:51:01;;;;;;;5.72;2.38;;;;;;;;;;5055757;28;20024;-79
2024/04/02 13:53:27;;;;;;;7.32;2.88;;;;;;;;;;5074247;28;20029;-79
2024/04/02 13:55:55;;;;;;;7.15;2.38;;;;;;;;;;5055453;28;20021;-79
2024/04/02 13:58:21;;;;;;;9.07;2.60;;;;;;;;;;5056221;28;20431;-79
2024/04/02 14:00:47;;;;;;;5.75;2.20;;;;;;;;;;5074483;28;20033;-80
2024/04/02 14:03:13;;;;;;;10.10;2.20;;;;;;;;;;5056283;28;20040;-80
2024/04/02 14:05:39;;;;;;;6.88;2.70;;;;;;;;;;5055766;28;20024;-80
2024/04/02 14:08:05;;;;;;;8.88;2.67;;;;;;;;;;5054783;28;20075;-80
2024/04/02 14:10:34;;;;;;;7.32;2.45;;;;;;;;;;5072368;28;20081;-79
2024/04/02 14:13:04;;;;;;;6.82;2.80;;;;;;;;;;5055415;28;20450;-80
2024/04/02 14:15:33;;;;;;;11.05;2.95;;;;;;;;;;5055568;28;20028;-81
2024/04/02 14:17:59;;;;;;;7.35;3.00;;;;;;;;;;5055487;28;20028;-79
2024/04/02 14:20:25;;;;;;;11.88;3.00;;;;;;;;;;5055429;28;20538;-81
2024/04/02 14:22:51;;;;;;;11.38;3.53;;;;;;;;;;5078144;28;20047;-80
2024/04/02 14:25:19;;;;;;;8.27;2.85;;;;;;;;;;5062793;28;20488;-82
2024/04/02 14:27:46;;;;;;;9.73;3.75;;;;;;;;;;5063117;28;20949;-80
2024/04/02 14:30:13;;;;;;;7.45;2.55;;;;;;;;;;5075071;28;20399;-80
2024/04/02 14:32:39;;;;;;;11.75;3.55;;;;;;;;;;5059421;28;20021;-81
2024/04/02 14:35:06;;;;;;;10.48;2.88;;;;;;;;;;5075604;28;20032;-79
2024/04/02 14:37:32;;;;;;;12.13;4.25;;;;;;;;;;5055427;28;20061;-79
2024/04/02 14:39:58;;;;;;;10.38;3.55;;;;;;;;;;5055654;28;20028;-80
2024/04/02 14:42:24;;;;;;;9.63;3.75;;;;;;;;;;5087901;28;20028;-80
2024/04/02 14:44:54;;;;;;;11.95;3.85;;;;;;;;;;5062068;28;20169;-80
2024/04/02 14:47:20;;;;;;;12.27;3.88;;;;;;;;;;5055721;28;20013;-80